Hendricks, West Virginia
Current Conditions -  °F | °C
As of 7:51 PM on Wednesday 17 Dec 2014 (Local Time) from KEKN Reporting Station
Overcast Overcast  
Wind Chill: 23°   Ceiling: 1700
Heat Index: 31°   Visibility: 10mi
Dew Point: 26°   Wind: 8mph
Humidity: 82%   Direction: 250°WSW
Pressure: 30.1"   Gusts: NA
Location:  39.08°N, 79.63°W
Report Text: KEKN 180051Z AUTO 25007KT 10SM OVC017 M01/M03 A3010 RMK AO2 SLP215 T10061033 TSNO
Loading
Personal Weather Stations






























Interactive Weather Map New forecast layout! Learn more

10-Day Weather Forecast

Advertisements
Track Severe Weather on mobile